Weather observations for the past three days for
Idaho Falls Regional Airport
Metric (Imperial)
Date Time (mdt) Wind (kph) Vis. (km) Weather Sky Cond. Temperature (ºC) Relative Humidity Wind Chill (°C) Heat Index (°C) Pressure Precipitation (cm)
Air Dwpt 6 hour altimeter (cm) sea level (mb) 1 hr 3 hr 6 hr
Max. Min.
04 08:53 Calm 16.09 Fair CLR 10 1.1 54% 75.82 1008.0
04 07:53 N 6 16.09 Fair CLR 6.1 0.6 68% 75.82 1008.2
04 06:53 Calm 16.09 Fair CLR 2.2 -0.6 82% 75.79 1008.2
04 05:53 N 6 16.09 Fair CLR 2.8 -0.6 13.3 1.1 79% 75.79 1008.1
04 04:53 NW 7 16.09 Fair CLR 2.2 -0.6 82% 0 75.79 1008.2
04 03:53 Calm 16.09 Fair CLR 3.9 0.6 79% 75.77 1007.8
04 02:53 N 9 16.09 Fair CLR 6.1 -0.6 63% 4 75.79 1007.7
04 01:53 N 7 16.09 Fair CLR 6.7 0.6 65% 6 75.79 1007.8
04 00:53 N 6 16.09 Fair CLR 7.2 1.1 66% 75.79 1007.9
03 23:53 E 7 16.09 Fair CLR 13.3 -1.1 23.3 10 37% 75.79 1007.3
03 22:53 S 7 16.09 Fair CLR 15 -1.1 33% 75.82 1007.7
03 21:53 S 9 16.09 A Few Clouds FEW120 17.2 -2.8 26% 75.82 1007.8
03 20:53 S 7 16.09 Fair CLR 18.3 -4.4 21% 75.79 1008.0
03 19:53 S 11 16.09 Fair CLR 21.1 -5 17% 75.79 1008.0
03 18:53 SE 11 16.09 Fair CLR 22.8 -6.1 14% 75.82 1008.8
03 17:53 Vrbl 7 16.09 Fair CLR 22.8 -6.7 23.9 18.3 13% 75.87 1009.2
03 16:53 Calm 16.09 Fair CLR 23.3 -4.4 15% 75.92 1009.3
03 15:53 NW 17 16.09 Fair CLR 22.2 -2.8 19% 76 1010.9
03 14:53 Vrbl 6 16.09 Fair CLR 21.7 -6.1 15% 76.05 1011.6
03 13:53 Vrbl 6 16.09 Fair CLR 21.7 -5 16% 76.1 1012.1
03 12:53 W 9 16.09 Fair CLR 19.4 -5 19% 76.15 1013.4
03 11:53 Calm 16.09 Fair CLR 17.8 -3.9 17.8 0.6 23% 76.23 1014.2
03 10:53 Vrbl 6 16.09 Fair CLR 15.6 -3.9 26% 76.28 1014.3
03 09:53 Calm 16.09 Fair CLR 12.8 -2.8 34% 76.3 1014.7
03 08:53 NW 6 16.09 Fair CLR 8.3 1.1 61% 76.33 1015.5
03 07:53 N 11 16.09 Fair CLR 5 -0.6 67% 3 76.33 1015.8
03 06:53 Calm 16.09 Fair CLR 1.1 -2.2 79% 76.3 1015.7
03 05:53 N 6 16.09 Fair CLR 2.2 -1.7 8.3 2.2 76% 76.28 1014.9
03 04:53 S 9 16.09 Fair CLR 5.6 -1.1 62% 4 76.28 1014.7
03 03:53 Calm 16.09 Fair CLR 3.3 -1.7 70% 76.28 1014.8
03 02:53 N 7 16.09 Fair CLR 4.4 -1.1 68% 3 76.28 1014.9
03 01:53 Calm 16.09 Fair CLR 6.1 0.6 68% 76.25 1014.3
03 00:53 Calm 16.09 Fair CLR 4.4 1.7 83% 76.25 1014.8
02 23:53 W 7 16.09 Fair CLR 6.7 0.6 21.7 6.1 65% 6 76.25 1014.5
02 22:53 SW 7 16.09 Fair CLR 12.2 -2.8 35% 76.25 1014.4
02 21:53 S 9 16.09 Fair CLR 14.4 -4.4 27% 76.25 1014.5
02 20:53 SW 7 16.09 Fair CLR 17.2 -5.6 21% 76.23 1014.3
02 19:53 S 11 16.09 Fair CLR 19.4 -7.2 16% 76.23 1014.4
02 18:53 SW 13 G 26 16.09 Fair CLR 20.6 -8.3 14% 76.23 1015.2
02 17:53 SW 20 16.09 Fair CLR 21.7 -9.4 22.2 17.8 12% 76.28 1015.4
02 16:53 SW 17 G 30 16.09 Fair CLR 21.1 -6.1 16% 76.3 1015.9
02 15:53 S 19 16.09 Fair CLR 21.7 -6.7 14% 76.38 1016.6
02 14:53 SW 17 G 33 16.09 Fair CLR 21.1 -8.9 12% 76.43 1017.4
02 13:53 SW 20 G 43 16.09 Fair CLR 21.1 -8.9 12% 76.45 1017.8
02 12:53 Vrbl 9 G 26 16.09 Fair CLR 19.4 -5.6 18% 76.53 1018.6
02 11:53 W 13 16.09 Fair CLR 18.3 -1.1 18.3 -2.2 27% 76.58 1019.5
02 10:53 Vrbl 6 16.09 Fair CLR 14.4 -2.8 31% 76.63 1019.7
02 09:53 N 13 16.09 Fair CLR 10.6 -1.7 43% 76.66 1020.3
02 08:53 N 13 16.09 Fair CLR 7.2 -1.1 56% 5 76.63 1020.2
02 07:53 NW 11 16.09 Fair CLR 3.9 -0.6 73% 1 76.63 1020.3
02 06:53 N 6 16.09 Fair CLR -1.7 -3.3 89% 76.61 1020.8
02 05:53 Calm 16.09 Fair CLR -0.6 -2.2 5 -0.6 89% 76.61 1020.6
02 04:53 Calm 16.09 Fair CLR 0 -3.3 79% 76.63 1020.6
02 03:53 NW 6 16.09 Fair CLR 0 -2.2 85% 76.61 1020.6
02 02:53 N 7 16.09 Fair CLR 1.1 -1.7 82% -1 76.61 1020.5
02 01:53 N 9 16.09 Fair CLR 2.2 -2.8 70% -0 76.61 1020.4
02 00:53 Calm 16.09 Fair CLR 3.3 -1.1 73% 76.58 1020.1
01 23:53 Calm 16.09 Fair CLR 4.4 1.1 18.9 4.4 79% 76.58 1019.9
01 22:53 SE 7 16.09 Fair CLR 11.1 -6.1 30% 76.56 1019.1
01 21:53 SE 6 16.09 Fair CLR 12.8 -6.7 25% 76.53 1018.8
01 20:53 Calm 16.09 Fair CLR 15.6 -7.8 19% 76.5 1018.3
01 19:53 NE 6 16.09 Fair CLR 17.8 -5.6 20% 76.48 1018.6
01 18:53 Vrbl 6 16.09 Fair CLR 18.3 -6.1 19% 76.5 1019.3
01 17:53 Vrbl 6 16.09 Fair CLR 18.3 -7.2 18.9 13.9 17% 76.5 1019.5
01 16:53 Vrbl 6 16.09 Fair CLR 18.3 -8.3 16% 76.53 1019.8
01 15:53 NW 7 16.09 Fair CLR 17.2 -6.1 20% 76.58 1020.4
01 14:53 Vrbl 7 16.09 Fair CLR 16.7 -6.7 20% 76.63 1021.1
01 13:53 Vrbl 7 16.09 Fair CLR 16.1 -5 23% 76.66 1021.3
01 12:53 Vrbl 9 16.09 Fair CLR 15.6 -5.6 23% 76.68 1021.9
01 11:53 Calm 16.09 Fair CLR 13.9 -2.2 14.4 -2.2 33% 76.73 1022.2
01 10:53 Vrbl 6 16.09 Fair CLR 12.2 -2.2 37% 76.76 1022.9
01 09:53 Vrbl 6 16.09 Fair CLR 10 -1.1 46% 76.78 1023.1
Date Time (mdt) Wind (kph) Vis. (km) Weather Sky Cond. Air Dwpt Max. Min. Relative Humidity Wind Chill (°C) Heat Index (°C) altimeter (cm) sea level (mb) 1 hr 3 hr 6 hr
6 hour
Temperature (ºC) Pressure Precipitation (cm)